Time,TemperatureF,DewpointF,PressureIn,WindDirection,WindDirectionDegrees,WindSpeedMPH,WindSpeedGustMPH,Humidity,HourlyPrecipIn,Conditions,Clouds,dailyrainin,SoftwareType,DateUTC
2013-02-18 00:14:00,13.4,12.0,30.18,East,89,1.0,1.0,93,0.00,,,0.11,weatherlink.com 1.10,2013-02-18 07:14:00,
2013-02-18 00:29:00,13.9,13.0,30.18,NE,37,0.0,2.0,94,0.00,,,0.11,weatherlink.com 1.10,2013-02-18 07:29:00,
2013-02-18 00:44:00,14.1,13.0,30.19,ENE,61,0.0,1.0,93,0.00,,,0.11,weatherlink.com 1.10,2013-02-18 07:44:00,
2013-02-18 00:59:00,12.9,11.0,30.19,SW,236,0.0,1.0,90,0.00,,,0.11,weatherlink.com 1.10,2013-02-18 07:59:00,
2013-02-18 01:14:00,13.4,12.0,30.19,SW,228,2.0,2.0,93,0.00,,,0.11,weatherlink.com 1.10,2013-02-18 08:14:00,
2013-02-18 01:29:00,12.5,11.0,30.19,SW,227,1.0,2.0,92,0.00,,,0.11,weatherlink.com 1.10,2013-02-18 08:29:00,
2013-02-18 01:45:00,10.9,9.0,30.20,SW,232,0.0,1.0,91,0.00,,,0.11,weatherlink.com 1.10,2013-02-18 08:45:00,
2013-02-18 02:00:00,9.7,8.0,30.20,SW,229,0.0,0.0,91,0.00,,,0.11,weatherlink.com 1.10,2013-02-18 09:00:00,
2013-02-18 02:15:00,10.0,8.0,30.21,SW,229,1.0,1.0,92,0.00,,,0.11,weatherlink.com 1.10,2013-02-18 09:15:00,
2013-02-18 02:30:00,10.2,9.0,30.21,SW,229,0.0,1.0,93,0.00,,,0.11,weatherlink.com 1.10,2013-02-18 09:30:00,
2013-02-18 02:45:00,9.8,8.0,30.21,SW,229,0.0,1.0,91,0.00,,,0.11,weatherlink.com 1.10,2013-02-18 09:45:00,
2013-02-18 03:00:00,9.9,8.0,30.21,SE,137,0.0,1.0,92,0.00,,,0.11,weatherlink.com 1.10,2013-02-18 10:00:00,
2013-02-18 03:15:00,10.5,8.0,30.21,SE,136,0.0,0.0,91,0.00,,,0.11,weatherlink.com 1.10,2013-02-18 10:15:00,
2013-02-18 03:30:00,10.7,9.0,30.21,SE,136,0.0,0.0,92,0.00,,,0.11,weatherlink.com 1.10,2013-02-18 10:30:00,
2013-02-18 03:45:00,10.2,8.0,30.20,ENE,77,0.0,1.0,92,0.00,,,0.11,weatherlink.com 1.10,2013-02-18 10:45:00,
2013-02-18 04:15:00,9.8,8.0,30.20,SSW,195,0.0,0.0,90,0.00,,,0.11,weatherlink.com 1.10,2013-02-18 11:15:00,
2013-02-18 04:45:00,9.4,8.0,30.20,SW,217,1.0,1.0,92,0.00,,,0.11,weatherlink.com 1.10,2013-02-18 11:45:00,
2013-02-18 05:00:00,10.2,8.0,30.20,SW,217,0.0,0.0,92,0.00,,,0.11,weatherlink.com 1.10,2013-02-18 12:00:00,
2013-02-18 05:15:00,8.7,6.0,30.20,ENE,77,0.0,1.0,88,0.00,,,0.11,weatherlink.com 1.10,2013-02-18 12:15:00,
2013-02-18 05:30:00,7.1,5.0,30.20,ENE,77,0.0,0.0,90,0.00,,,0.11,weatherlink.com 1.10,2013-02-18 12:30:00,
2013-02-18 05:45:00,8.3,6.0,30.20,ENE,77,0.0,0.0,91,0.00,,,0.11,weatherlink.com 1.10,2013-02-18 12:45:00,
2013-02-18 06:00:00,7.6,5.0,30.20,ENE,78,0.0,1.0,90,0.00,,,0.11,weatherlink.com 1.10,2013-02-18 13:00:00,
2013-02-18 06:15:00,7.7,6.0,30.20,ENE,77,0.0,1.0,91,0.00,,,0.00,weatherlink.com 1.10,2013-02-18 13:15:00,
2013-02-18 06:30:00,7.9,6.0,30.20,ENE,77,0.0,0.0,90,0.00,,,0.00,weatherlink.com 1.10,2013-02-18 13:30:00,
2013-02-18 06:45:00,8.3,6.0,30.20,ENE,77,0.0,0.0,90,0.00,,,0.00,weatherlink.com 1.10,2013-02-18 13:45:00,
2013-02-18 07:00:00,7.8,6.0,30.20,ENE,77,0.0,0.0,91,0.00,,,0.00,weatherlink.com 1.10,2013-02-18 14:00:00,
2013-02-18 07:15:00,7.2,5.0,30.20,ENE,77,0.0,1.0,89,0.00,,,0.00,weatherlink.com 1.10,2013-02-18 14:15:00,
2013-02-18 07:30:00,7.9,6.0,30.20,ENE,72,0.0,0.0,92,0.00,,,0.00,weatherlink.com 1.10,2013-02-18 14:30:00,
2013-02-18 07:45:00,7.6,6.0,30.20,WSW,243,0.0,0.0,91,0.00,,,0.00,weatherlink.com 1.10,2013-02-18 14:45:00,
2013-02-18 08:00:00,7.5,5.0,30.20,WSW,243,0.0,0.0,90,0.00,,,0.00,weatherlink.com 1.10,2013-02-18 15:00:00,
2013-02-18 08:15:00,7.2,5.0,30.20,WSW,243,0.0,0.0,89,0.00,,,0.00,weatherlink.com 1.10,2013-02-18 15:15:00,
2013-02-18 08:30:00,7.9,5.0,30.21,WSW,243,0.0,0.0,87,0.00,,,0.00,weatherlink.com 1.10,2013-02-18 15:30:00,
2013-02-18 08:45:00,9.0,6.0,30.21,WSW,243,0.0,0.0,87,0.00,,,0.00,weatherlink.com 1.10,2013-02-18 15:45:00,
2013-02-18 09:00:00,8.9,5.0,30.21,NE,37,0.0,0.0,83,0.00,,,0.00,weatherlink.com 1.10,2013-02-18 16:00:00,
2013-02-18 09:15:00,10.5,8.0,30.20,SW,224,1.0,1.0,89,0.00,,,0.00,weatherlink.com 1.10,2013-02-18 16:15:00,
2013-02-18 09:30:00,12.4,10.0,30.21,SW,215,0.0,1.0,88,0.00,,,0.00,weatherlink.com 1.10,2013-02-18 16:30:00,
2013-02-18 09:45:00,10.8,7.0,30.21,East,81,1.0,1.0,86,0.00,,,0.00,weatherlink.com 1.10,2013-02-18 16:45:00,
2013-02-18 10:00:00,10.9,8.0,30.21,ENE,77,0.0,1.0,87,0.00,,,0.00,weatherlink.com 1.10,2013-02-18 17:00:00,
2013-02-18 10:15:00,14.4,12.0,30.21,East,81,0.0,0.0,89,0.00,,,0.00,weatherlink.com 1.10,2013-02-18 17:15:00,
2013-02-18 10:30:00,15.1,11.0,30.21,East,88,1.0,2.0,84,0.00,,,0.00,weatherlink.com 1.10,2013-02-18 17:30:00,
2013-02-18 10:46:00,15.7,12.0,30.20,ENE,74,0.0,1.0,85,0.00,,,0.00,weatherlink.com 1.10,2013-02-18 17:46:00,
2013-02-18 11:01:00,19.8,16.0,30.20,SW,226,0.0,2.0,84,0.00,,,0.00,weatherlink.com 1.10,2013-02-18 18:01:00,
2013-02-18 11:16:00,20.7,15.0,30.20,WSW,242,2.0,3.0,79,0.00,,,0.00,weatherlink.com 1.10,2013-02-18 18:16:00,
2013-02-18 11:31:00,21.1,14.0,30.19,ENE,67,2.0,2.0,75,0.00,,,0.00,weatherlink.com 1.10,2013-02-18 18:31:00,
2013-02-18 11:46:00,21.1,16.0,30.19,SW,229,1.0,2.0,79,0.00,,,0.00,weatherlink.com 1.10,2013-02-18 18:46:00,
2013-02-18 12:16:00,25.5,17.0,30.18,ESE,102,1.0,1.0,71,0.00,,,0.00,weatherlink.com 1.10,2013-02-18 19:16:00,
2013-02-18 12:31:00,24.1,16.0,30.17,ENE,65,3.0,3.0,72,0.00,,,0.00,weatherlink.com 1.10,2013-02-18 19:31:00,
2013-02-18 12:46:00,23.0,16.0,30.16,East,81,2.0,3.0,74,0.00,,,0.00,weatherlink.com 1.10,2013-02-18 19:46:00,
2013-02-18 13:01:00,22.9,16.0,30.15,ENE,69,2.0,3.0,75,0.00,,,0.00,weatherlink.com 1.10,2013-02-18 20:01:00,
2013-02-18 13:16:00,22.9,16.0,30.14,ENE,78,1.0,2.0,75,0.00,,,0.00,weatherlink.com 1.10,2013-02-18 20:16:00,
2013-02-18 13:31:00,25.7,17.0,30.13,East,94,1.0,4.0,70,0.00,,,0.00,weatherlink.com 1.10,2013-02-18 20:31:00,
2013-02-18 13:46:00,25.6,17.0,30.12,ENE,78,2.0,4.0,69,0.00,,,0.00,weatherlink.com 1.10,2013-02-18 20:46:00,
2013-02-18 14:01:00,27.3,17.0,30.11,SE,124,3.0,5.0,64,0.00,,,0.00,weatherlink.com 1.10,2013-02-18 21:01:00,
2013-02-18 14:16:00,29.5,17.0,30.11,East,95,1.0,7.0,60,0.00,,,0.00,weatherlink.com 1.10,2013-02-18 21:16:00,
2013-02-18 14:31:00,29.3,16.0,30.10,ESE,108,3.0,10.0,57,0.00,,,0.00,weatherlink.com 1.10,2013-02-18 21:31:00,
2013-02-18 14:46:00,29.1,16.0,30.09,East,95,4.0,5.0,58,0.00,,,0.00,weatherlink.com 1.10,2013-02-18 21:46:00,
2013-02-18 15:01:00,29.5,15.0,30.08,ENE,63,2.0,4.0,56,0.00,,,0.00,weatherlink.com 1.10,2013-02-18 22:01:00,
2013-02-18 15:16:00,31.0,16.0,30.08,West,263,1.0,4.0,53,0.00,,,0.00,weatherlink.com 1.10,2013-02-18 22:16:00,
2013-02-18 15:32:00,30.9,15.0,30.07,East,81,4.0,7.0,51,0.00,,,0.00,weatherlink.com 1.10,2013-02-18 22:32:00,
2013-02-18 15:47:00,29.3,15.0,30.07,ENE,65,0.0,2.0,56,0.00,,,0.00,weatherlink.com 1.10,2013-02-18 22:47:00,
2013-02-18 16:02:00,30.4,17.0,30.07,SW,226,2.0,2.0,58,0.00,,,0.00,weatherlink.com 1.10,2013-02-18 23:02:00,
2013-02-18 16:17:00,29.8,17.0,30.06,ENE,60,3.0,4.0,58,0.00,,,0.00,weatherlink.com 1.10,2013-02-18 23:17:00,
2013-02-18 16:32:00,28.3,15.0,30.05,East,91,0.0,3.0,58,0.00,,,0.00,weatherlink.com 1.10,2013-02-18 23:32:00,
2013-02-18 16:47:00,29.5,14.0,30.04,SSW,201,0.0,2.0,53,0.00,,,0.00,weatherlink.com 1.10,2013-02-18 23:47:00,
2013-02-18 17:02:00,30.2,14.0,30.03,SE,127,0.0,2.0,52,0.00,,,0.00,weatherlink.com 1.10,2013-02-19 00:02:00,
2013-02-18 17:17:00,30.2,16.0,30.04,SW,236,2.0,2.0,55,0.00,,,0.00,weatherlink.com 1.10,2013-02-19 00:17:00,
2013-02-18 17:32:00,28.7,17.0,30.04,WSW,238,1.0,1.0,61,0.00,,,0.00,weatherlink.com 1.10,2013-02-19 00:32:00,
2013-02-18 17:47:00,28.0,16.0,30.05,SW,233,0.0,1.0,60,0.00,,,0.00,weatherlink.com 1.10,2013-02-19 00:47:00,
2013-02-18 18:02:00,27.4,15.0,30.04,East,94,2.0,3.0,60,0.00,,,0.00,weatherlink.com 1.10,2013-02-19 01:02:00,
2013-02-18 18:17:00,27.3,16.0,30.03,South,173,0.0,1.0,62,0.00,,,0.00,weatherlink.com 1.10,2013-02-19 01:17:00,
2013-02-18 18:32:00,27.8,15.0,30.02,East,80,1.0,2.0,58,0.00,,,0.00,weatherlink.com 1.10,2013-02-19 01:32:00,
2013-02-18 18:47:00,27.8,16.0,30.03,WSW,239,3.0,3.0,61,0.00,,,0.00,weatherlink.com 1.10,2013-02-19 01:47:00,
2013-02-18 19:02:00,26.4,14.0,30.03,SW,224,1.0,2.0,61,0.00,,,0.00,weatherlink.com 1.10,2013-02-19 02:02:00,
2013-02-18 19:17:00,26.5,13.0,30.02,WSW,242,0.0,1.0,58,0.00,,,0.00,weatherlink.com 1.10,2013-02-19 02:17:00,
2013-02-18 19:32:00,25.8,14.0,30.02,East,94,0.0,1.0,62,0.00,,,0.00,weatherlink.com 1.10,2013-02-19 02:32:00,
2013-02-18 19:47:00,25.2,15.0,30.01,ESE,117,0.0,1.0,64,0.00,,,0.00,weatherlink.com 1.10,2013-02-19 02:47:00,
2013-02-18 20:17:00,25.1,13.0,30.01,SW,236,0.0,0.0,61,0.00,,,0.00,weatherlink.com 1.10,2013-02-19 03:17:00,
2013-02-18 20:32:00,23.9,14.0,30.00,East,100,1.0,1.0,67,0.00,,,0.00,weatherlink.com 1.10,2013-02-19 03:32:00,
2013-02-18 20:47:00,23.8,15.0,30.00,SW,224,0.0,0.0,68,0.00,,,0.00,weatherlink.com 1.10,2013-02-19 03:47:00,
2013-02-18 21:17:00,23.7,15.0,29.99,SSW,197,0.0,0.0,68,0.00,,,0.00,weatherlink.com 1.10,2013-02-19 04:17:00,
2013-02-18 21:32:00,20.4,14.0,29.98,NE,54,0.0,2.0,76,0.00,,,0.00,weatherlink.com 1.10,2013-02-19 04:32:00,
2013-02-18 21:47:00,21.0,15.0,29.98,East,83,0.0,0.0,77,0.00,,,0.00,weatherlink.com 1.10,2013-02-19 04:47:00,
2013-02-18 22:02:00,21.6,15.0,29.98,East,97,1.0,2.0,76,0.00,,,0.00,weatherlink.com 1.10,2013-02-19 05:02:00,
2013-02-18 22:17:00,20.9,15.0,29.97,East,91,1.0,2.0,77,0.00,,,0.00,weatherlink.com 1.10,2013-02-19 05:17:00,
2013-02-18 22:32:00,21.3,15.0,29.96,East,96,0.0,1.0,75,0.00,,,0.00,weatherlink.com 1.10,2013-02-19 05:32:00,
2013-02-18 22:47:00,17.5,12.0,29.96,SW,235,3.0,4.0,79,0.00,,,0.00,weatherlink.com 1.10,2013-02-19 05:47:00,
2013-02-18 23:02:00,16.4,12.0,29.96,ENE,58,0.0,2.0,82,0.00,,,0.00,weatherlink.com 1.10,2013-02-19 06:02:00,
2013-02-18 23:17:00,16.1,12.0,29.95,East,96,0.0,2.0,84,0.00,,,0.00,weatherlink.com 1.10,2013-02-19 06:17:00,
2013-02-18 23:32:00,17.1,13.0,29.94,East,96,0.0,1.0,85,0.00,,,0.00,weatherlink.com 1.10,2013-02-19 06:32:00,
2013-02-18 23:47:00,17.7,13.0,29.94,SW,226,0.0,1.0,83,0.00,,,0.00,weatherlink.com 1.10,2013-02-19 06:47:00,